createdAt,value
2022-12-16T00:01:22.796Z,27.35
2022-12-16T00:06:26.294Z,26.15
2022-12-16T00:11:27.819Z,24.48
2022-12-16T00:16:29.064Z,32.53
2022-12-16T00:21:30.031Z,28.60
2022-12-16T00:26:31.015Z,29.83
2022-12-16T00:31:32.287Z,29.55
2022-12-16T00:36:33.729Z,25.90
2022-12-16T00:41:34.576Z,21.42
2022-12-16T00:46:35.464Z,21.40
2022-12-16T00:51:36.194Z,15.93
2022-12-16T00:56:36.990Z,15.57
2022-12-16T01:01:37.911Z,13.62
2022-12-16T01:06:39.456Z,22.30
2022-12-16T01:11:40.163Z,17.73
2022-12-16T01:16:41.091Z,24.15
2022-12-16T01:21:41.960Z,22.10
2022-12-16T01:26:42.757Z,15.60
2022-12-16T01:31:43.758Z,16.90
2022-12-16T01:36:44.981Z,16.23
2022-12-16T01:41:45.749Z,35.38
2022-12-16T01:46:53.152Z,22.08
2022-12-16T01:52:01.629Z,26.50
2022-12-16T01:57:07.945Z,18.15
2022-12-16T02:02:10.113Z,17.15
2022-12-16T02:07:11.042Z,12.57
2022-12-16T02:12:26.719Z,11.23
2022-12-16T02:17:37.685Z,12.35
2022-12-16T02:23:26.626Z,10.80
2022-12-16T02:29:04.976Z,12.23
2022-12-16T02:34:23.731Z,13.15
2022-12-16T02:39:41.023Z,17.12
2022-12-16T02:51:32.764Z,17.83
2022-12-16T02:56:49.718Z,18.62
2022-12-16T03:02:04.606Z,18.33
2022-12-16T03:07:12.578Z,15.25
2022-12-16T03:12:17.308Z,15.38
2022-12-16T03:17:21.240Z,14.18
2022-12-16T03:22:27.111Z,17.37
2022-12-16T03:28:15.950Z,19.40
2022-12-16T03:33:29.736Z,20.80
2022-12-16T03:38:33.013Z,15.18
2022-12-16T03:43:34.400Z,16.87
2022-12-16T03:48:35.986Z,15.60
2022-12-16T03:53:36.704Z,19.00
2022-12-16T03:58:41.759Z,18.75
2022-12-16T04:03:42.540Z,18.42
2022-12-16T04:08:47.531Z,14.65
2022-12-16T04:14:06.935Z,13.20
2022-12-16T04:19:37.624Z,13.70
2022-12-16T04:24:38.567Z,10.43
2022-12-16T04:30:18.244Z,13.48
2022-12-16T04:35:37.953Z,15.45
2022-12-16T04:40:57.295Z,11.20
2022-12-16T04:46:16.859Z,10.80
2022-12-16T04:51:36.386Z,10.23
2022-12-16T04:56:55.859Z,11.00
2022-12-16T05:02:15.620Z,10.73
2022-12-16T05:07:38.462Z,14.60
2022-12-16T05:12:58.079Z,9.30
2022-12-16T05:18:17.479Z,11.85
2022-12-16T05:23:37.195Z,8.10
2022-12-16T05:28:56.640Z,9.25
2022-12-16T05:34:16.258Z,9.00
2022-12-16T05:39:35.709Z,9.85
2022-12-16T05:44:55.288Z,10.38
2022-12-16T05:50:14.813Z,13.80
2022-12-16T05:55:35.899Z,12.82
2022-12-16T06:00:55.507Z,17.33
2022-12-16T06:06:15.428Z,20.58
2022-12-16T06:11:34.883Z,16.73
2022-12-16T06:16:54.390Z,11.25
2022-12-16T06:22:13.753Z,10.18
2022-12-16T06:27:33.175Z,9.13
2022-12-16T06:32:52.644Z,8.90
2022-12-16T06:38:12.317Z,10.63
2022-12-16T06:43:32.344Z,9.10
2022-12-16T06:48:52.447Z,10.93
2022-12-16T06:54:12.197Z,10.93
2022-12-16T06:59:31.972Z,6.75
2022-12-16T07:04:51.474Z,10.60
2022-12-16T07:10:10.858Z,9.32
2022-12-16T07:15:30.536Z,9.18
2022-12-16T07:20:49.978Z,10.00
2022-12-16T07:26:10.556Z,9.43
2022-12-16T07:31:29.986Z,8.05
2022-12-16T07:36:49.405Z,7.07
2022-12-16T07:42:08.748Z,8.48
2022-12-16T07:47:28.146Z,10.27
2022-12-16T07:52:47.678Z,7.28
2022-12-16T07:58:09.119Z,7.85
2022-12-16T08:03:28.609Z,7.95
2022-12-16T08:08:47.820Z,7.43
2022-12-16T08:14:07.517Z,6.45
2022-12-16T08:19:27.513Z,8.40
2022-12-16T08:24:53.297Z,7.25
2022-12-16T08:30:13.242Z,8.10
2022-12-16T08:35:32.639Z,7.95
2022-12-16T08:40:52.091Z,8.48
2022-12-16T08:46:15.299Z,15.00
2022-12-16T08:51:35.115Z,19.37
2022-12-16T08:56:54.556Z,14.15
2022-12-16T09:02:15.326Z,10.43
2022-12-16T09:07:35.659Z,8.27
2022-12-16T09:12:55.117Z,7.25
2022-12-16T09:18:15.215Z,7.45
2022-12-16T09:23:34.989Z,6.47
2022-12-16T09:28:54.991Z,5.18
2022-12-16T09:34:14.641Z,7.72
2022-12-16T09:39:34.137Z,6.72
2022-12-16T09:45:28.911Z,7.80
2022-12-16T09:50:50.005Z,9.35
2022-12-16T09:56:10.528Z,8.82
2022-12-16T10:01:31.067Z,5.87
2022-12-16T10:06:59.959Z,8.10
2022-12-16T10:14:00.882Z,4.65
2022-12-16T10:21:24.722Z,4.55
2022-12-16T10:27:08.376Z,6.33
2022-12-16T10:32:56.307Z,4.90
2022-12-16T10:38:16.509Z,6.93
2022-12-16T10:45:19.823Z,7.65
2022-12-16T10:50:39.674Z,7.35
2022-12-16T10:59:13.961Z,6.53
2022-12-16T11:08:11.311Z,5.07
2022-12-16T11:13:53.261Z,4.68
2022-12-16T11:19:12.742Z,8.82
2022-12-16T11:24:38.143Z,7.12
2022-12-16T11:30:50.215Z,5.93
2022-12-16T11:36:12.659Z,9.02
2022-12-16T11:41:50.303Z,6.50
2022-12-16T11:47:10.434Z,8.45
2022-12-16T11:52:37.784Z,9.43
2022-12-16T11:58:11.140Z,7.82
2022-12-16T12:03:40.905Z,7.68
2022-12-16T12:10:07.033Z,8.15
2022-12-16T12:16:26.776Z,11.82
2022-12-16T12:22:10.162Z,11.20
2022-12-16T12:29:11.229Z,7.68
2022-12-16T12:34:53.479Z,8.48
2022-12-16T12:40:41.414Z,8.10
2022-12-16T12:46:31.389Z,7.97
2022-12-16T12:54:57.949Z,17.37
2022-12-16T13:00:38.486Z,11.93
2022-12-16T13:05:59.255Z,12.77
2022-12-16T13:11:35.301Z,10.88
2022-12-16T13:17:18.930Z,11.38
2022-12-16T13:22:52.038Z,11.70
2022-12-16T13:28:14.531Z,10.20
2022-12-16T13:36:15.621Z,9.73
2022-12-16T13:42:09.278Z,9.23
2022-12-16T13:47:51.196Z,11.75
2022-12-16T13:53:15.719Z,13.73
2022-12-16T13:58:56.316Z,11.73
2022-12-16T14:04:18.005Z,12.75
2022-12-16T14:09:45.875Z,12.88
2022-12-16T14:15:23.400Z,11.73
2022-12-16T14:20:53.554Z,13.95
2022-12-16T14:26:17.248Z,14.40
2022-12-16T14:31:50.680Z,17.17
2022-12-16T14:37:12.047Z,19.77
2022-12-16T14:42:43.110Z,25.60
2022-12-16T14:49:35.806Z,20.12
2022-12-16T14:55:01.077Z,34.47
2022-12-16T15:00:56.738Z,19.30
2022-12-16T15:06:16.736Z,16.90
2022-12-16T15:11:38.648Z,21.00
2022-12-16T15:17:00.388Z,52.30
2022-12-16T15:22:20.150Z,22.25
2022-12-16T15:27:44.133Z,37.25
2022-12-16T15:33:10.722Z,52.10
2022-12-16T15:39:13.730Z,29.90
2022-12-16T15:44:45.271Z,41.37
2022-12-16T15:50:06.715Z,34.75
2022-12-16T15:56:02.568Z,29.40
2022-12-16T16:01:26.369Z,29.02
2022-12-16T16:06:46.333Z,35.42
2022-12-16T16:12:05.654Z,36.25
2022-12-16T16:17:43.445Z,32.60
2022-12-16T16:23:02.807Z,24.58
2022-12-16T16:28:22.740Z,28.50
2022-12-16T16:33:42.216Z,30.70
2022-12-16T16:39:01.784Z,38.88
2022-12-16T16:44:21.218Z,33.60
2022-12-16T16:50:05.018Z,30.75
2022-12-16T16:55:25.896Z,45.38
2022-12-16T17:00:45.964Z,50.67
2022-12-16T17:06:05.630Z,45.53
2022-12-16T17:11:36.102Z,55.83
2022-12-16T17:16:55.530Z,53.45
2022-12-16T17:22:14.950Z,41.25
2022-12-16T17:27:37.818Z,39.72
2022-12-16T17:32:57.276Z,62.03
2022-12-16T17:38:16.715Z,39.67
2022-12-16T17:43:36.987Z,39.13
2022-12-16T17:48:56.362Z,32.53
2022-12-16T17:54:22.671Z,52.80
2022-12-16T17:59:44.834Z,44.70
2022-12-16T18:05:04.417Z,35.95
2022-12-16T18:10:25.115Z,45.42
2022-12-16T18:15:44.602Z,46.05
2022-12-16T18:21:03.797Z,54.58
2022-12-16T18:26:25.607Z,67.28
2022-12-16T18:31:45.099Z,53.70
2022-12-16T18:37:04.624Z,45.03
2022-12-16T18:42:24.234Z,38.22
2022-12-16T18:47:43.629Z,62.47
2022-12-16T18:53:03.102Z,30.62
2022-12-16T18:58:49.543Z,27.13
2022-12-16T19:04:11.741Z,26.83
2022-12-16T19:09:31.301Z,59.80
2022-12-16T19:14:50.627Z,27.95
2022-12-16T19:20:10.086Z,28.12
2022-12-16T19:25:29.555Z,29.80
2022-12-16T19:32:01.502Z,23.20
2022-12-16T19:37:21.433Z,25.80
2022-12-16T19:42:41.041Z,36.58
2022-12-16T19:48:00.896Z,28.33
2022-12-16T19:53:20.401Z,33.80
2022-12-16T19:58:40.296Z,38.92
2022-12-16T20:03:59.844Z,39.20
2022-12-16T20:09:20.289Z,50.53
2022-12-16T20:14:39.943Z,49.25
2022-12-16T20:19:59.449Z,35.60
2022-12-16T20:25:19.154Z,39.20
2022-12-16T20:30:38.676Z,41.88
2022-12-16T20:35:58.174Z,53.75
2022-12-16T20:41:19.541Z,36.15
2022-12-16T20:46:39.037Z,28.75
2022-12-16T20:51:58.524Z,34.58
2022-12-16T20:57:18.020Z,41.85
2022-12-16T21:02:37.640Z,44.85
2022-12-16T21:07:57.011Z,41.37
2022-12-16T21:14:57.320Z,35.50
2022-12-16T21:20:16.732Z,66.80
2022-12-16T21:25:36.308Z,36.25
2022-12-16T21:30:55.943Z,42.30
2022-12-16T21:36:15.938Z,38.58
2022-12-16T21:41:35.726Z,35.40
2022-12-16T21:46:55.336Z,37.08
2022-12-16T21:52:16.370Z,67.43
2022-12-16T21:57:35.778Z,66.82
2022-12-16T22:02:55.751Z,57.75
2022-12-16T22:08:15.732Z,43.87
2022-12-16T22:13:35.570Z,72.62
2022-12-16T22:18:56.135Z,67.43
2022-12-16T22:24:15.723Z,46.13
2022-12-16T22:29:35.240Z,58.80
2022-12-16T22:34:54.698Z,51.80
2022-12-16T22:40:15.024Z,34.78
2022-12-16T22:45:34.467Z,28.90
2022-12-16T22:50:54.062Z,26.10
2022-12-16T22:56:16.019Z,25.60
2022-12-16T23:01:35.582Z,25.90
2022-12-16T23:06:56.187Z,19.45
2022-12-16T23:12:15.782Z,20.02
2022-12-16T23:17:35.131Z,16.45
2022-12-16T23:22:54.895Z,45.47
2022-12-16T23:28:15.937Z,32.13
2022-12-16T23:33:36.136Z,18.05
2022-12-16T23:38:55.529Z,19.55
2022-12-16T23:44:16.135Z,15.57
2022-12-16T23:49:35.891Z,70.00
2022-12-16T23:54:55.563Z,24.65
